createdAt,value
2022-08-12T00:00:17.077Z,12
2022-08-12T00:01:08.909Z,11
2022-08-12T00:02:03.151Z,12
2022-08-12T00:02:52.724Z,12
2022-08-12T00:03:44.570Z,13
2022-08-12T00:04:36.395Z,11
2022-08-12T00:05:28.312Z,12
2022-08-12T00:06:20.178Z,12
2022-08-12T00:07:12.054Z,12
2022-08-12T00:08:03.907Z,12
2022-08-12T00:08:55.816Z,12
2022-08-12T00:09:47.659Z,11
2022-08-12T00:10:39.557Z,12
2022-08-12T00:11:31.392Z,12
2022-08-12T00:12:23.293Z,11
2022-08-12T00:13:15.143Z,12
2022-08-12T00:14:06.961Z,13
2022-08-12T00:14:58.882Z,14
2022-08-12T00:15:50.790Z,13
2022-08-12T00:16:42.638Z,13
2022-08-12T00:17:34.499Z,13
2022-08-12T00:18:26.362Z,13
2022-08-12T00:19:18.243Z,12
2022-08-12T00:20:10.115Z,12
2022-08-12T00:21:01.987Z,11
2022-08-12T00:21:53.841Z,11
2022-08-12T00:22:45.737Z,11
2022-08-12T00:23:37.591Z,11
2022-08-12T00:24:29.479Z,12
2022-08-12T00:25:21.326Z,12
2022-08-12T00:26:22.908Z,12
2022-08-12T00:27:05.057Z,13
2022-08-12T00:27:56.938Z,12
2022-08-12T00:28:48.727Z,14
2022-08-12T00:29:43.621Z,12
2022-08-12T00:30:32.533Z,12
2022-08-12T00:31:24.450Z,12
2022-08-12T00:32:35.144Z,11
2022-08-12T00:33:08.167Z,12
2022-08-12T00:34:00.596Z,12
2022-08-12T00:34:52.022Z,11
2022-08-12T00:35:44.397Z,12
2022-08-12T00:36:36.395Z,11
2022-08-12T00:37:28.319Z,12
2022-08-12T00:38:19.379Z,12
2022-08-12T00:39:11.250Z,13
2022-08-12T00:40:04.627Z,14
2022-08-12T00:40:54.966Z,12
2022-08-12T00:41:46.858Z,13
2022-08-12T00:42:38.849Z,12
2022-08-12T00:43:30.590Z,12
2022-08-12T00:44:22.429Z,12
2022-08-12T00:45:14.309Z,13
2022-08-12T00:46:06.172Z,12
2022-08-12T00:46:58.038Z,13
2022-08-12T00:47:49.889Z,12
2022-08-12T00:48:41.763Z,13
2022-08-12T00:49:33.616Z,13
2022-08-12T00:50:25.504Z,12
2022-08-12T00:51:17.360Z,11
2022-08-12T00:52:09.229Z,12
2022-08-12T00:53:01.143Z,12
2022-08-12T00:53:52.985Z,12
2022-08-12T00:54:44.860Z,12
2022-08-12T00:55:36.738Z,12
2022-08-12T00:56:28.587Z,13
2022-08-12T00:57:20.484Z,13
2022-08-12T00:58:12.351Z,12
2022-08-12T00:59:04.228Z,11
2022-08-12T00:59:56.102Z,12
2022-08-12T01:00:47.992Z,13
2022-08-12T01:02:10.417Z,14
2022-08-12T01:02:31.917Z,14
2022-08-12T01:03:23.640Z,13
2022-08-12T01:04:15.525Z,12
2022-08-12T01:05:07.394Z,12
2022-08-12T01:05:59.214Z,14
2022-08-12T01:06:53.826Z,14
2022-08-12T01:07:43.049Z,13
2022-08-12T01:08:34.921Z,13
2022-08-12T01:09:26.829Z,14
2022-08-12T01:10:18.653Z,13
2022-08-12T01:11:10.587Z,14
2022-08-12T01:12:02.452Z,13
2022-08-12T01:12:54.350Z,14
2022-08-12T01:13:46.233Z,12
2022-08-12T01:14:38.137Z,12
2022-08-12T01:15:30.003Z,13
2022-08-12T01:16:21.920Z,13
2022-08-12T01:17:13.804Z,12
2022-08-12T01:18:05.711Z,12
2022-08-12T01:18:57.581Z,12
2022-08-12T01:19:49.429Z,12
2022-08-12T01:20:41.348Z,13
2022-08-12T01:21:33.258Z,15
2022-08-12T01:22:25.129Z,14
2022-08-12T01:23:17.043Z,13
2022-08-12T01:24:27.957Z,14
2022-08-12T01:25:00.800Z,14
2022-08-12T01:25:56.134Z,14
2022-08-12T01:26:44.540Z,14
2022-08-12T01:27:36.435Z,13
2022-08-12T01:28:28.326Z,13
2022-08-12T01:29:20.188Z,13
2022-08-12T01:30:12.096Z,12
2022-08-12T01:31:03.959Z,13
2022-08-12T01:31:55.847Z,12
2022-08-12T01:32:47.720Z,13
2022-08-12T01:33:39.601Z,12
2022-08-12T01:34:35.908Z,13
2022-08-12T01:35:23.347Z,14
2022-08-12T01:36:15.213Z,12
2022-08-12T01:37:07.107Z,12
2022-08-12T01:37:58.896Z,12
2022-08-12T01:38:50.884Z,12
2022-08-12T01:40:35.926Z,12
2022-08-12T01:40:38.181Z,13
2022-08-12T01:41:26.464Z,12
2022-08-12T01:42:18.366Z,12
2022-08-12T01:43:10.244Z,12
2022-08-12T01:44:02.105Z,12
2022-08-12T01:44:53.955Z,14
2022-08-12T01:45:45.847Z,12
2022-08-12T01:46:37.703Z,12
2022-08-12T01:47:29.597Z,13
2022-08-12T01:48:21.461Z,12
2022-08-12T01:49:13.336Z,12
2022-08-12T01:50:05.198Z,13
2022-08-12T01:51:01.321Z,12
2022-08-12T01:52:20.930Z,12
2022-08-12T01:52:41.073Z,11
2022-08-12T01:53:32.677Z,12
2022-08-12T01:54:24.566Z,11
2022-08-12T01:55:16.418Z,12
2022-08-12T01:56:08.302Z,12
2022-08-12T01:57:00.166Z,12
2022-08-12T01:57:58.403Z,14
2022-08-12T01:58:43.917Z,12
2022-08-12T01:59:35.807Z,12
2022-08-12T02:00:43.370Z,12
2022-08-12T02:01:19.518Z,13
2022-08-12T02:02:11.410Z,13
2022-08-12T02:03:03.277Z,12
2022-08-12T02:03:55.134Z,13
2022-08-12T02:04:47.016Z,13
2022-08-12T02:05:38.806Z,12
2022-08-12T02:06:30.751Z,12
2022-08-12T02:07:22.591Z,12
2022-08-12T02:08:14.481Z,12
2022-08-12T02:09:06.325Z,12
2022-08-12T02:09:58.210Z,11
2022-08-12T02:10:52.072Z,14
2022-08-12T02:11:41.939Z,12
2022-08-12T02:12:33.803Z,12
2022-08-12T02:13:42.057Z,12
2022-08-12T02:14:17.528Z,12
2022-08-12T02:15:09.340Z,12
2022-08-12T02:16:01.257Z,12
2022-08-12T02:16:53.118Z,12
2022-08-12T02:17:55.179Z,12
2022-08-12T02:18:36.848Z,11
2022-08-12T02:19:28.689Z,12
2022-08-12T02:20:20.583Z,13
2022-08-12T02:21:12.418Z,12
2022-08-12T02:22:04.904Z,12
2022-08-12T02:22:56.140Z,12
2022-08-12T02:23:48.024Z,11
2022-08-12T02:24:39.875Z,11
2022-08-12T02:25:31.768Z,12
2022-08-12T02:26:23.604Z,13
2022-08-12T02:27:15.477Z,11
2022-08-12T02:28:07.920Z,12
2022-08-12T02:28:59.207Z,12
2022-08-12T02:29:51.050Z,13
2022-08-12T02:30:42.926Z,12
2022-08-12T02:31:34.769Z,12
2022-08-12T02:32:26.670Z,12
2022-08-12T02:33:18.488Z,12
2022-08-12T02:34:10.386Z,14
2022-08-12T02:35:02.172Z,12
2022-08-12T02:35:54.096Z,13
2022-08-12T02:36:45.949Z,14
2022-08-12T02:37:37.810Z,12
2022-08-12T02:38:29.680Z,12
2022-08-12T02:39:21.696Z,11
2022-08-12T02:40:13.392Z,12
2022-08-12T02:41:05.261Z,12
2022-08-12T02:41:57.124Z,12
2022-08-12T02:42:48.964Z,12
2022-08-12T02:43:41.577Z,12
2022-08-12T02:44:32.714Z,13
2022-08-12T02:45:24.555Z,13
2022-08-12T02:46:16.421Z,13
2022-08-12T02:47:08.260Z,11
2022-08-12T02:48:01.383Z,13
2022-08-12T02:48:51.986Z,12
2022-08-12T02:49:43.860Z,14
2022-08-12T02:50:35.708Z,14
2022-08-12T02:51:27.589Z,13
2022-08-12T02:52:19.391Z,12
2022-08-12T02:53:11.303Z,13
2022-08-12T02:54:05.523Z,12
2022-08-12T02:54:55.013Z,13
2022-08-12T02:55:46.874Z,12
2022-08-12T02:56:38.737Z,13
2022-08-12T02:57:30.586Z,14
2022-08-12T02:58:33.449Z,13
2022-08-12T02:59:14.289Z,13
2022-08-12T03:00:06.193Z,12
2022-08-12T03:00:58.050Z,12
2022-08-12T03:01:49.881Z,12
2022-08-12T03:02:41.925Z,13
2022-08-12T03:03:33.599Z,13
2022-08-12T03:04:25.469Z,13
2022-08-12T03:05:17.318Z,12
2022-08-12T03:06:09.083Z,13
2022-08-12T03:07:01.035Z,12
2022-08-12T03:07:59.825Z,12
2022-08-12T03:08:44.877Z,14
2022-08-12T03:09:56.741Z,13
2022-08-12T03:10:36.852Z,13
2022-08-12T03:11:20.328Z,13
2022-08-12T03:12:20.074Z,13
2022-08-12T03:13:04.040Z,12
2022-08-12T03:13:55.909Z,14
2022-08-12T03:14:47.761Z,13
2022-08-12T03:15:39.581Z,12
2022-08-12T03:16:32.703Z,12
2022-08-12T03:17:23.344Z,14
2022-08-12T03:18:24.532Z,12
2022-08-12T03:19:07.050Z,14
2022-08-12T03:20:10.295Z,14
2022-08-12T03:20:50.758Z,16
2022-08-12T03:21:59.912Z,15
2022-08-12T03:22:34.461Z,14
2022-08-12T03:23:30.102Z,13
2022-08-12T03:24:18.180Z,13
2022-08-12T03:25:10.018Z,12
2022-08-12T03:26:02.519Z,14
2022-08-12T03:26:53.752Z,13
2022-08-12T03:27:45.605Z,14
2022-08-12T03:28:37.457Z,12
2022-08-12T03:29:29.222Z,12
2022-08-12T03:30:21.168Z,12
2022-08-12T03:31:13.045Z,15
2022-08-12T03:32:04.870Z,13
2022-08-12T03:32:56.732Z,12
2022-08-12T03:34:02.003Z,14
2022-08-12T03:34:40.453Z,14
2022-08-12T03:35:40.287Z,14
2022-08-12T03:36:24.151Z,13
2022-08-12T03:37:15.991Z,13
2022-08-12T03:38:07.861Z,13
2022-08-12T03:38:59.662Z,14
2022-08-12T03:39:51.615Z,13
2022-08-12T03:40:43.394Z,14
2022-08-12T03:41:35.277Z,13
2022-08-12T03:42:28.146Z,14
2022-08-12T03:43:18.939Z,14
2022-08-12T03:44:10.809Z,14
2022-08-12T03:45:02.622Z,13
2022-08-12T03:45:54.546Z,16
2022-08-12T03:46:46.407Z,14
2022-08-12T03:47:38.260Z,14
2022-08-12T03:48:30.083Z,13
2022-08-12T03:49:21.924Z,13
2022-08-12T03:50:13.787Z,14
2022-08-12T03:51:05.638Z,16
2022-08-12T03:51:57.497Z,14
2022-08-12T03:52:49.331Z,14
2022-08-12T03:53:41.205Z,16
2022-08-12T03:54:33.031Z,14
2022-08-12T03:55:24.896Z,14
2022-08-12T03:56:16.729Z,13
2022-08-12T03:57:08.593Z,14
2022-08-12T03:58:00.432Z,13
2022-08-12T03:58:52.294Z,13
2022-08-12T03:59:44.139Z,13
2022-08-12T04:00:36.023Z,13
2022-08-12T04:01:27.976Z,14
2022-08-12T04:02:19.725Z,14
2022-08-12T04:03:12.987Z,13
2022-08-12T04:04:03.391Z,14
2022-08-12T04:04:55.217Z,14
2022-08-12T04:05:55.484Z,14
2022-08-12T04:06:39.005Z,14
2022-08-12T04:07:30.767Z,14
2022-08-12T04:08:22.612Z,14
2022-08-12T04:09:16.341Z,14
2022-08-12T04:10:06.343Z,13
2022-08-12T04:10:58.151Z,13
2022-08-12T04:11:49.996Z,12
2022-08-12T04:12:42.042Z,13
2022-08-12T04:13:33.690Z,15
2022-08-12T04:14:25.544Z,13
2022-08-12T04:15:17.391Z,14
2022-08-12T04:16:09.130Z,15
2022-08-12T04:17:01.060Z,14
2022-08-12T04:18:06.354Z,13
2022-08-12T04:18:44.743Z,14
2022-08-12T04:19:36.607Z,13
2022-08-12T04:20:28.445Z,13
2022-08-12T04:21:20.301Z,14
2022-08-12T04:22:12.131Z,13
2022-08-12T04:23:03.982Z,14
2022-08-12T04:23:55.825Z,14
2022-08-12T04:24:50.385Z,14
2022-08-12T04:25:39.516Z,13
2022-08-12T04:26:31.373Z,13
2022-08-12T04:27:23.220Z,14
2022-08-12T04:28:15.070Z,14
2022-08-12T04:29:06.899Z,13
2022-08-12T04:30:30.891Z,12
2022-08-12T04:30:50.607Z,14
2022-08-12T04:31:42.457Z,14
2022-08-12T04:32:34.285Z,15
2022-08-12T04:33:26.153Z,14
2022-08-12T04:34:17.973Z,13
2022-08-12T04:35:09.839Z,14
2022-08-12T04:36:01.670Z,13
2022-08-12T04:36:53.536Z,13
2022-08-12T04:37:59.106Z,13
2022-08-12T04:38:37.242Z,14
2022-08-12T04:39:29.063Z,14
2022-08-12T04:40:28.535Z,14
2022-08-12T04:41:12.764Z,13
2022-08-12T04:42:04.609Z,13
2022-08-12T04:42:56.430Z,14
2022-08-12T04:44:01.238Z,15
2022-08-12T04:44:40.125Z,16
2022-08-12T04:45:31.991Z,15
2022-08-12T04:46:26.458Z,14
2022-08-12T04:47:15.655Z,14
2022-08-12T04:48:07.499Z,16
2022-08-12T04:48:59.260Z,14
2022-08-12T04:49:51.173Z,13
2022-08-12T04:50:43.033Z,14
2022-08-12T04:51:34.862Z,15
2022-08-12T04:52:28.073Z,15
2022-08-12T04:53:18.547Z,14
2022-08-12T04:54:10.403Z,16
2022-08-12T04:55:02.160Z,14
2022-08-12T04:55:54.096Z,14
2022-08-12T04:56:45.914Z,14
2022-08-12T04:57:37.784Z,14
2022-08-12T04:58:30.163Z,14
2022-08-12T04:59:21.472Z,13
2022-08-12T05:00:13.286Z,15
2022-08-12T05:01:05.145Z,14
2022-08-12T05:01:57.046Z,14
2022-08-12T05:02:48.841Z,14
2022-08-12T05:03:46.320Z,15
2022-08-12T05:04:32.436Z,15
2022-08-12T05:05:24.367Z,15
2022-08-12T05:06:20.794Z,13
2022-08-12T05:07:08.027Z,14
2022-08-12T05:07:59.836Z,15
2022-08-12T05:08:51.710Z,13
2022-08-12T05:09:58.924Z,14
2022-08-12T05:10:36.022Z,14
2022-08-12T05:11:27.256Z,14
2022-08-12T05:12:19.086Z,13
2022-08-12T05:13:10.948Z,15
2022-08-12T05:14:02.768Z,15
2022-08-12T05:14:54.634Z,14
2022-08-12T05:16:04.026Z,15
2022-08-12T05:16:38.326Z,15
2022-08-12T05:17:30.296Z,15
2022-08-12T05:18:22.016Z,14
2022-08-12T05:19:22.492Z,14
2022-08-12T05:20:05.685Z,14
2022-08-12T05:20:57.530Z,16
2022-08-12T05:21:49.316Z,14
2022-08-12T05:22:41.253Z,15
2022-08-12T05:23:33.064Z,15
2022-08-12T05:24:24.877Z,15
2022-08-12T05:25:18.441Z,15
2022-08-12T05:26:08.575Z,15
2022-08-12T05:27:00.453Z,15
2022-08-12T05:27:58.643Z,16
2022-08-12T05:28:44.137Z,15
2022-08-12T05:30:08.356Z,14
2022-08-12T05:30:27.799Z,14
2022-08-12T05:31:47.217Z,14
2022-08-12T05:32:11.487Z,16
2022-08-12T05:33:03.328Z,15
2022-08-12T05:33:55.193Z,15
2022-08-12T05:34:47.024Z,15
2022-08-12T05:35:38.860Z,15
2022-08-12T05:36:30.697Z,14
2022-08-12T05:37:22.553Z,16
2022-08-12T05:38:14.395Z,15
2022-08-12T05:39:06.249Z,14
2022-08-12T05:39:58.143Z,15
2022-08-12T05:40:49.877Z,14
2022-08-12T05:41:41.792Z,14
2022-08-12T05:42:34.413Z,14
2022-08-12T05:43:25.457Z,15
2022-08-12T05:44:17.330Z,15
2022-08-12T05:45:09.096Z,16
2022-08-12T05:46:01.009Z,15
2022-08-12T05:46:52.845Z,15
2022-08-12T05:47:53.457Z,17
2022-08-12T05:48:36.559Z,17
2022-08-12T05:49:28.409Z,16
2022-08-12T05:50:20.245Z,15
2022-08-12T05:51:12.110Z,16
2022-08-12T05:52:03.949Z,16
2022-08-12T05:52:55.823Z,15
2022-08-12T05:53:47.671Z,16
2022-08-12T05:54:56.549Z,15
2022-08-12T05:55:31.642Z,17
2022-08-12T05:56:23.218Z,18
2022-08-12T05:57:15.050Z,15
2022-08-12T05:58:06.928Z,15
2022-08-12T05:58:58.762Z,18
2022-08-12T05:59:50.634Z,17
2022-08-12T06:00:42.565Z,19
2022-08-12T06:02:10.938Z,16
2022-08-12T06:02:26.193Z,17
2022-08-12T06:03:19.478Z,15
2022-08-12T06:04:09.859Z,16
2022-08-12T06:05:01.770Z,15
2022-08-12T06:05:55.678Z,17
2022-08-12T06:06:45.479Z,16
2022-08-12T06:08:01.577Z,18
2022-08-12T06:08:29.188Z,19
2022-08-12T06:09:21.047Z,18
2022-08-12T06:10:12.919Z,18
2022-08-12T06:11:04.766Z,17
2022-08-12T06:12:05.748Z,18
2022-08-12T06:12:48.480Z,18
2022-08-12T06:13:53.728Z,17
2022-08-12T06:14:32.203Z,16
2022-08-12T06:15:24.089Z,16
2022-08-12T06:16:15.932Z,16
2022-08-12T06:17:07.801Z,18
2022-08-12T06:17:59.589Z,18
2022-08-12T06:18:51.533Z,18
2022-08-12T06:20:26.732Z,19
2022-08-12T06:20:35.250Z,17
2022-08-12T06:21:27.101Z,18
2022-08-12T06:22:18.985Z,18
2022-08-12T06:23:10.824Z,18
2022-08-12T06:24:02.725Z,18
2022-08-12T06:24:54.560Z,16
2022-08-12T06:25:46.417Z,17
2022-08-12T06:26:38.283Z,18
2022-08-12T06:27:30.143Z,18
2022-08-12T06:28:21.997Z,17
2022-08-12T06:29:13.861Z,19
2022-08-12T06:30:08.283Z,18
2022-08-12T06:31:24.405Z,18
2022-08-12T06:31:49.401Z,17
2022-08-12T06:32:47.498Z,18
2022-08-12T06:33:55.502Z,18
2022-08-12T06:35:23.002Z,19
2022-08-12T06:35:26.101Z,18
2022-08-12T06:36:08.790Z,18
2022-08-12T06:37:00.638Z,18
2022-08-12T06:37:56.792Z,18
2022-08-12T06:38:44.373Z,18
2022-08-12T06:39:36.306Z,20
2022-08-12T06:40:28.118Z,17
2022-08-12T06:41:19.962Z,16
2022-08-12T06:42:42.199Z,17
2022-08-12T06:43:03.719Z,18
2022-08-12T06:44:05.986Z,18
2022-08-12T06:44:47.459Z,19
2022-08-12T06:45:45.049Z,18
2022-08-12T06:46:31.194Z,18
2022-08-12T06:47:23.059Z,18
2022-08-12T06:48:14.946Z,17
2022-08-12T06:49:06.868Z,18
2022-08-12T06:49:58.683Z,18
2022-08-12T06:50:50.534Z,17
2022-08-12T06:51:42.420Z,16
2022-08-12T06:52:34.277Z,17
2022-08-12T06:53:26.170Z,17
2022-08-12T06:54:18.965Z,18
2022-08-12T06:55:09.869Z,16
2022-08-12T06:56:01.788Z,16
2022-08-12T06:57:05.337Z,17
2022-08-12T06:58:06.071Z,18
2022-08-12T06:58:37.431Z,17
2022-08-12T06:59:29.278Z,17
2022-08-12T07:00:21.167Z,16
2022-08-12T07:01:13.087Z,16
2022-08-12T07:02:04.936Z,17
2022-08-12T07:02:56.788Z,16
2022-08-12T07:03:48.684Z,16
2022-08-12T07:04:40.736Z,17
2022-08-12T07:05:32.424Z,15
2022-08-12T07:06:24.374Z,16
2022-08-12T07:07:16.218Z,19
2022-08-12T07:08:10.126Z,17
2022-08-12T07:08:59.918Z,15
2022-08-12T07:10:06.511Z,17
2022-08-12T07:10:43.721Z,16
2022-08-12T07:11:35.594Z,17
2022-08-12T07:12:27.901Z,17
2022-08-12T07:13:19.301Z,17
2022-08-12T07:14:13.073Z,16
2022-08-12T07:15:03.140Z,17
2022-08-12T07:15:55.026Z,16
2022-08-12T07:16:46.906Z,17
2022-08-12T07:17:38.793Z,16
2022-08-12T07:18:30.667Z,16
2022-08-12T07:19:22.564Z,15
2022-08-12T07:20:35.866Z,15
2022-08-12T07:21:06.330Z,16
2022-08-12T07:22:02.086Z,16
2022-08-12T07:22:50.102Z,16
2022-08-12T07:23:41.979Z,17
2022-08-12T07:24:33.864Z,14
2022-08-12T07:25:25.752Z,15
2022-08-12T07:26:17.642Z,16
2022-08-12T07:27:09.454Z,16
2022-08-12T07:28:01.412Z,16
2022-08-12T07:28:53.285Z,16
2022-08-12T07:29:57.914Z,17
2022-08-12T07:30:37.056Z,16
2022-08-12T07:31:28.956Z,17
2022-08-12T07:32:20.849Z,15
2022-08-12T07:33:12.727Z,17
2022-08-12T07:34:04.737Z,17
2022-08-12T07:34:56.495Z,17
2022-08-12T07:35:48.621Z,15
2022-08-12T07:36:40.270Z,15
2022-08-12T07:37:32.143Z,16
2022-08-12T07:38:29.162Z,16
2022-08-12T07:39:16.016Z,17
2022-08-12T07:40:07.938Z,16
2022-08-12T07:40:59.632Z,16
2022-08-12T07:41:51.603Z,15
2022-08-12T07:42:43.477Z,16
2022-08-12T07:43:35.397Z,17
2022-08-12T07:44:27.257Z,16
2022-08-12T07:45:19.163Z,16
2022-08-12T07:46:11.043Z,16
2022-08-12T07:47:02.946Z,17
2022-08-12T07:47:54.823Z,16
2022-08-12T07:48:46.734Z,17
2022-08-12T07:50:05.148Z,18
2022-08-12T07:50:30.500Z,16
2022-08-12T07:51:24.715Z,16
2022-08-12T07:52:14.279Z,15
2022-08-12T07:53:06.152Z,16
2022-08-12T07:54:00.562Z,17
2022-08-12T07:54:49.871Z,17
2022-08-12T07:55:41.837Z,16
2022-08-12T07:56:33.724Z,16
2022-08-12T07:57:25.615Z,16
2022-08-12T07:58:17.494Z,17
2022-08-12T07:59:09.373Z,17
2022-08-12T08:00:01.307Z,17
2022-08-12T08:00:53.177Z,16
2022-08-12T08:01:45.142Z,16
2022-08-12T08:02:37.202Z,16
2022-08-12T08:03:28.838Z,16
2022-08-12T08:04:20.758Z,15
2022-08-12T08:05:12.638Z,16
2022-08-12T08:06:04.529Z,16
2022-08-12T08:06:56.412Z,15
2022-08-12T08:07:48.310Z,15
2022-08-12T08:08:40.346Z,16
2022-08-12T08:09:32.101Z,15
2022-08-12T08:10:24.014Z,16
2022-08-12T08:11:15.892Z,16
2022-08-12T08:12:07.768Z,18
2022-08-12T08:12:59.575Z,16
2022-08-12T08:13:51.555Z,16
2022-08-12T08:14:43.477Z,15
2022-08-12T08:16:01.965Z,16
2022-08-12T08:16:27.261Z,16
2022-08-12T08:17:19.123Z,14
2022-08-12T08:18:11.051Z,16
2022-08-12T08:19:02.925Z,17
2022-08-12T08:20:03.842Z,15
2022-08-12T08:20:46.712Z,14
2022-08-12T08:21:38.613Z,17
2022-08-12T08:22:50.163Z,15
2022-08-12T08:23:22.400Z,16
2022-08-12T08:24:14.286Z,14
2022-08-12T08:25:06.186Z,16
2022-08-12T08:25:58.070Z,15
2022-08-12T08:26:49.924Z,15
2022-08-12T08:27:41.868Z,16
2022-08-12T08:28:33.776Z,15
2022-08-12T08:29:25.647Z,14
2022-08-12T08:30:17.573Z,15
2022-08-12T08:31:09.436Z,15
2022-08-12T08:32:01.357Z,14
2022-08-12T08:32:53.225Z,13
2022-08-12T08:34:04.216Z,15
2022-08-12T08:34:54.040Z,14
2022-08-12T08:35:46.378Z,15
2022-08-12T08:36:23.535Z,14
2022-08-12T08:37:15.452Z,14
2022-08-12T08:38:04.588Z,15
2022-08-12T08:38:58.278Z,14
2022-08-12T08:39:48.498Z,15
2022-08-12T08:40:40.288Z,13
2022-08-12T08:42:14.681Z,14
2022-08-12T08:42:24.089Z,14
2022-08-12T08:43:15.958Z,15
2022-08-12T08:44:07.899Z,15
2022-08-12T08:44:59.679Z,14
2022-08-12T08:45:51.668Z,16
2022-08-12T08:46:43.542Z,14
2022-08-12T08:47:35.446Z,14
2022-08-12T08:48:27.326Z,15
2022-08-12T08:49:19.239Z,15
2022-08-12T08:50:11.118Z,15
2022-08-12T08:51:04.730Z,16
2022-08-12T08:51:54.905Z,15
2022-08-12T08:52:46.945Z,15
2022-08-12T08:53:38.700Z,16
2022-08-12T08:54:30.616Z,15
2022-08-12T08:55:30.163Z,15
2022-08-12T08:56:14.407Z,15
2022-08-12T08:57:06.293Z,13
2022-08-12T08:57:58.199Z,15
2022-08-12T08:58:50.022Z,16
2022-08-12T08:59:42.009Z,14
2022-08-12T09:00:33.874Z,13
2022-08-12T09:01:25.880Z,13
2022-08-12T09:02:17.721Z,15
2022-08-12T09:04:21.349Z,14
2022-08-12T09:05:09.713Z,13
2022-08-12T09:05:12.374Z,14
2022-08-12T09:06:02.073Z,14
2022-08-12T09:06:38.118Z,15
2022-08-12T09:07:51.349Z,15
2022-08-12T09:08:22.393Z,13
2022-08-12T09:09:14.588Z,13
2022-08-12T09:10:04.742Z,13
2022-08-12T09:10:59.884Z,14
2022-08-12T09:12:06.929Z,14
2022-08-12T09:12:42.316Z,14
2022-08-12T09:14:10.961Z,14
2022-08-12T09:14:29.352Z,14
2022-08-12T09:16:08.094Z,14
2022-08-12T09:16:59.852Z,14
2022-08-12T09:17:51.873Z,15
2022-08-12T09:18:43.726Z,14
2022-08-12T09:19:35.594Z,14
2022-08-12T09:20:29.568Z,14
2022-08-12T09:21:19.394Z,14
2022-08-12T09:22:11.313Z,14
2022-08-12T09:23:08.088Z,13
2022-08-12T09:23:59.154Z,14
2022-08-12T09:24:46.998Z,13
2022-08-12T09:25:38.891Z,15
2022-08-12T09:26:30.754Z,14
2022-08-12T09:27:57.472Z,14
2022-08-12T09:28:14.549Z,14
2022-08-12T09:29:12.586Z,14
2022-08-12T09:30:11.490Z,15
2022-08-12T09:30:50.249Z,14
2022-08-12T09:32:03.177Z,14
2022-08-12T09:33:05.330Z,14
2022-08-12T09:34:26.657Z,14
2022-08-12T09:34:27.994Z,14
2022-08-12T09:35:22.228Z,15
2022-08-12T09:36:03.086Z,15
2022-08-12T09:36:59.930Z,14
2022-08-12T09:37:58.451Z,14
2022-08-12T09:38:37.292Z,13
2022-08-12T09:40:06.285Z,14
2022-08-12T09:40:57.804Z,14
2022-08-12T09:42:08.335Z,14
2022-08-12T09:42:34.536Z,14
2022-08-12T09:43:11.162Z,13
2022-08-12T09:43:53.932Z,14
2022-08-12T09:44:40.637Z,13
2022-08-12T09:46:07.123Z,13
2022-08-12T09:46:25.341Z,14
2022-08-12T09:47:16.245Z,14
2022-08-12T09:48:08.147Z,13
2022-08-12T09:48:59.996Z,12
2022-08-12T09:49:58.800Z,12
2022-08-12T09:50:43.814Z,14
2022-08-12T09:51:37.634Z,14
2022-08-12T09:52:32.004Z,14
2022-08-12T09:53:29.356Z,14
2022-08-12T09:54:33.454Z,13
2022-08-12T09:55:03.750Z,12
2022-08-12T09:56:06.954Z,13
2022-08-12T09:57:00.081Z,14
2022-08-12T09:58:45.968Z,13
2022-08-12T09:58:59.584Z,14
2022-08-12T10:00:17.667Z,15
2022-08-12T10:00:19.580Z,13
2022-08-12T10:01:15.286Z,12
2022-08-12T10:02:44.899Z,13
2022-08-12T10:02:50.417Z,14
2022-08-12T10:03:55.587Z,12
2022-08-12T10:04:34.195Z,12
2022-08-12T10:06:19.211Z,13
2022-08-12T10:06:26.434Z,14
2022-08-12T10:07:20.423Z,13
2022-08-12T10:08:01.749Z,14
2022-08-12T10:08:53.676Z,13
2022-08-12T10:09:58.097Z,12
2022-08-12T10:10:42.332Z,14
2022-08-12T10:11:29.341Z,12
2022-08-12T10:12:31.564Z,12
2022-08-12T10:13:35.868Z,12
2022-08-12T10:14:05.165Z,13
2022-08-12T10:14:56.934Z,12
2022-08-12T10:16:01.797Z,14
2022-08-12T10:16:40.737Z,13
2022-08-12T10:17:32.646Z,15
2022-08-12T10:18:24.522Z,13
2022-08-12T10:19:17.175Z,12
2022-08-12T10:20:09.873Z,13
2022-08-12T10:21:00.176Z,11
2022-08-12T10:21:56.610Z,13
2022-08-12T10:22:44.044Z,12
2022-08-12T10:23:39.932Z,13
2022-08-12T10:24:27.855Z,13
2022-08-12T10:25:19.670Z,13
2022-08-12T10:26:37.400Z,14
2022-08-12T10:27:05.685Z,14
2022-08-12T10:28:05.034Z,14
2022-08-12T10:28:56.236Z,14
2022-08-12T10:30:02.969Z,15
2022-08-12T10:30:39.625Z,13
2022-08-12T10:31:23.076Z,13
2022-08-12T10:32:21.275Z,14
2022-08-12T10:33:18.241Z,14
2022-08-12T10:34:06.639Z,12
2022-08-12T10:34:53.679Z,14
2022-08-12T10:35:42.573Z,14
2022-08-12T10:36:40.664Z,12
2022-08-12T10:38:34.246Z,12
2022-08-12T10:38:34.991Z,13
2022-08-12T10:40:01.440Z,12
2022-08-12T10:40:09.671Z,14
2022-08-12T10:40:54.081Z,12
2022-08-12T10:41:57.955Z,12
2022-08-12T10:42:37.826Z,13
2022-08-12T10:43:29.685Z,12
2022-08-12T10:44:21.630Z,13
2022-08-12T10:45:14.245Z,13
2022-08-12T10:46:13.185Z,14
2022-08-12T10:46:57.350Z,12
2022-08-12T10:48:20.056Z,12
2022-08-12T10:48:41.158Z,13
2022-08-12T10:50:02.857Z,12
2022-08-12T10:50:33.679Z,14
2022-08-12T10:52:03.627Z,13
2022-08-12T10:52:33.941Z,12
2022-08-12T10:53:00.670Z,12
2022-08-12T10:53:52.883Z,12
2022-08-12T10:54:44.497Z,14
2022-08-12T10:55:36.399Z,13
2022-08-12T10:56:34.283Z,13
2022-08-12T10:58:12.755Z,12
2022-08-12T10:58:14.363Z,13
2022-08-12T10:59:04.029Z,12
2022-08-12T11:00:34.907Z,12
2022-08-12T11:00:55.102Z,12
2022-08-12T11:04:20.703Z,12
2022-08-12T11:04:23.557Z,12
2022-08-12T11:04:28.005Z,12
2022-08-12T11:04:29.499Z,12
2022-08-12T11:07:02.079Z,13
2022-08-12T11:07:09.553Z,13
2022-08-12T11:07:10.114Z,14
2022-08-12T11:08:34.617Z,13
2022-08-12T11:08:43.379Z,12
2022-08-12T11:09:41.801Z,12
2022-08-12T11:10:19.131Z,13
2022-08-12T11:11:13.975Z,12
2022-08-12T11:12:34.817Z,12
2022-08-12T11:12:59.596Z,12
2022-08-12T11:13:49.000Z,12
2022-08-12T11:14:49.098Z,12
2022-08-12T11:15:33.220Z,13
2022-08-12T11:16:23.309Z,12
2022-08-12T11:17:34.981Z,12
2022-08-12T11:18:06.006Z,12
2022-08-12T11:18:57.920Z,13
2022-08-12T11:19:49.789Z,12
2022-08-12T11:20:41.725Z,12
2022-08-12T11:21:58.068Z,11
2022-08-12T11:22:25.552Z,12
2022-08-12T11:23:26.032Z,11
2022-08-12T11:24:30.093Z,11
2022-08-12T11:25:01.275Z,10
2022-08-12T11:25:58.221Z,11
2022-08-12T11:26:45.098Z,11
2022-08-12T11:27:36.996Z,12
2022-08-12T11:28:34.049Z,13
2022-08-12T11:29:22.663Z,12
2022-08-12T11:30:31.667Z,12
2022-08-12T11:31:04.622Z,12
2022-08-12T11:32:02.745Z,12
2022-08-12T11:32:48.426Z,13
2022-08-12T11:34:06.518Z,12
2022-08-12T11:34:52.640Z,12
2022-08-12T11:35:24.156Z,12
2022-08-12T11:36:16.044Z,11
2022-08-12T11:37:24.727Z,11
2022-08-12T11:37:59.877Z,10
2022-08-12T11:38:51.795Z,12
2022-08-12T11:40:35.627Z,12
2022-08-12T11:41:31.544Z,13
2022-08-12T11:42:19.444Z,13
2022-08-12T11:43:19.823Z,12
2022-08-12T11:44:35.219Z,11
2022-08-12T11:44:55.149Z,12
2022-08-12T11:45:47.536Z,11
2022-08-12T11:46:38.970Z,11
2022-08-12T11:47:30.891Z,14
2022-08-12T11:48:26.791Z,12
2022-08-12T11:49:26.831Z,13
2022-08-12T11:50:06.613Z,13
2022-08-12T11:50:58.539Z,12
2022-08-12T11:51:57.848Z,12
2022-08-12T11:52:56.715Z,11
2022-08-12T11:53:59.580Z,12
2022-08-12T11:54:26.179Z,13
2022-08-12T11:55:18.083Z,12
2022-08-12T11:56:11.273Z,13
2022-08-12T11:57:02.815Z,13
2022-08-12T11:58:13.633Z,14
2022-08-12T12:02:00.843Z,17
2022-08-12T12:02:02.925Z,16
2022-08-12T12:02:17.597Z,16
2022-08-12T12:03:05.342Z,15
2022-08-12T12:03:57.198Z,16
2022-08-12T12:04:53.054Z,17
2022-08-12T12:05:41.945Z,18
2022-08-12T12:06:32.962Z,18
2022-08-12T12:08:36.620Z,18
2022-08-12T12:08:37.289Z,19
2022-08-12T12:09:08.634Z,15
2022-08-12T12:10:00.618Z,15
2022-08-12T12:10:52.507Z,15
2022-08-12T12:11:49.431Z,15
2022-08-12T12:12:36.383Z,15
2022-08-12T12:14:07.415Z,15
2022-08-12T12:14:20.071Z,14
2022-08-12T12:15:12.436Z,14
2022-08-12T12:16:05.860Z,15
2022-08-12T12:16:55.914Z,15
2022-08-12T12:17:47.810Z,15
2022-08-12T12:18:39.765Z,14
2022-08-12T12:19:45.238Z,15
2022-08-12T12:20:26.189Z,16
2022-08-12T12:21:15.485Z,15
2022-08-12T12:22:07.393Z,16
2022-08-12T12:22:59.288Z,15